Time;durP1;ratioP1;P1;durP2;ratioP2;P2;SDS_P1;SDS_P2;PMS_P1;PMS_P2;Temp;Humidity;BMP_temperature;BMP_pressure;BME280_temperature;BME280_humidity;BME280_pressure;Samples;Min_cycle;Max_cycle;Signal;HPM_P1;HPM_P2
2023/12/22 00:00:13;;;;;;;35.75;18.20;;;5.10;99.90;;;;;;5017620;28;20152;-77
2023/12/22 00:02:39;;;;;;;28.77;17.83;;;5.10;99.90;;;;;;5032333;28;20098;-77
2023/12/22 00:05:07;;;;;;;25.83;16.15;;;5.10;99.90;;;;;;5035788;28;20407;-76
2023/12/22 00:07:33;;;;;;;40.58;15.88;;;5.10;99.90;;;;;;5019570;28;20057;-77
2023/12/22 00:10:00;;;;;;;31.73;15.90;;;5.10;99.90;;;;;;5019190;28;20067;-76
2023/12/22 00:12:28;;;;;;;40.63;15.23;;;5.10;99.90;;;;;;5034475;28;20048;-76
2023/12/22 00:14:55;;;;;;;38.40;15.63;;;5.10;99.90;;;;;;5019815;28;20289;-75
2023/12/22 00:17:22;;;;;;;36.63;14.00;;;5.10;99.90;;;;;;5031171;28;20094;-75
2023/12/22 00:19:48;;;;;;;28.90;12.45;;;5.10;99.90;;;;;;5050067;28;20057;-77
2023/12/22 00:22:15;;;;;;;30.63;10.77;;;5.10;99.90;;;;;;5022177;28;20049;-76
2023/12/22 00:24:42;;;;;;;33.40;10.23;;;5.00;99.90;;;;;;5008221;28;20066;-75
2023/12/22 00:27:09;;;;;;;32.70;8.00;;;4.90;99.90;;;;;;5047376;28;20119;-76
2023/12/22 00:29:37;;;;;;;35.47;9.23;;;4.90;99.90;;;;;;5031926;28;20060;-75
2023/12/22 00:32:04;;;;;;;33.78;8.13;;;4.90;99.90;;;;;;5045834;28;20056;-75
2023/12/22 00:34:31;;;;;;;30.67;8.00;;;4.90;99.90;;;;;;5015485;28;20045;-75
2023/12/22 00:36:58;;;;;;;27.17;7.47;;;4.90;99.90;;;;;;5027964;28;20434;-75
2023/12/22 00:39:25;;;;;;;28.17;7.88;;;4.80;99.90;;;;;;5030353;28;20058;-77
2023/12/22 00:41:51;;;;;;;36.78;8.25;;;4.80;99.90;;;;;;5032504;28;20103;-77
2023/12/22 00:44:18;;;;;;;22.52;7.18;;;4.80;99.90;;;;;;5030879;28;20045;-77
2023/12/22 00:46:45;;;;;;;30.05;7.53;;;4.80;99.90;;;;;;5009780;28;20052;-78
2023/12/22 00:49:12;;;;;;;17.88;7.03;;;4.70;99.90;;;;;;5031230;28;20041;-78
2023/12/22 00:51:39;;;;;;;24.73;7.50;;;4.70;99.90;;;;;;5028683;28;20053;-78
2023/12/22 00:54:06;;;;;;;27.00;7.43;;;4.80;99.90;;;;;;5022493;28;20037;-76
2023/12/22 00:56:32;;;;;;;20.08;7.07;;;4.80;99.90;;;;;;5007297;28;20040;-77
2023/12/22 00:58:59;;;;;;;25.85;6.85;;;4.80;99.90;;;;;;5020885;28;20053;-76
2023/12/22 01:01:37;;;;;;;21.95;6.95;;;4.80;99.90;;;;;;5030765;28;20044;-78
2023/12/22 01:04:04;;;;;;;23.05;7.07;;;4.80;99.90;;;;;;5030494;28;20045;-77
2023/12/22 01:06:31;;;;;;;17.50;7.25;;;4.90;99.90;;;;;;5018966;28;20053;-77
2023/12/22 01:08:58;;;;;;;24.85;8.57;;;4.90;99.90;;;;;;5030326;28;20045;-77
2023/12/22 01:11:25;;;;;;;17.75;8.88;;;4.90;99.90;;;;;;5028092;28;20055;-77
2023/12/22 01:13:52;;;;;;;22.50;10.45;;;4.90;99.90;;;;;;5039835;28;20052;-78
2023/12/22 01:16:21;;;;;;;30.23;8.98;;;4.90;99.90;;;;;;5032241;28;20053;-78
2023/12/22 01:18:48;;;;;;;26.20;10.02;;;5.00;99.90;;;;;;5038289;28;20044;-77
2023/12/22 01:21:16;;;;;;;23.08;11.10;;;5.00;99.90;;;;;;5015841;28;20049;-78
2023/12/22 01:23:43;;;;;;;22.13;8.80;;;4.90;99.90;;;;;;5026667;28;20060;-75
2023/12/22 01:26:10;;;;;;;25.52;8.93;;;4.90;99.90;;;;;;5021033;28;20044;-76
2023/12/22 01:28:37;;;;;;;25.90;10.45;;;4.90;99.90;;;;;;5024160;28;20053;-78
2023/12/22 01:31:03;;;;;;;20.90;10.25;;;4.90;99.90;;;;;;5034425;28;20037;-78
2023/12/22 01:33:30;;;;;;;28.88;10.75;;;5.00;99.90;;;;;;5034560;28;20136;-77
2023/12/22 01:35:57;;;;;;;29.92;12.05;;;5.00;99.90;;;;;;5042960;28;20508;-77
2023/12/22 01:38:24;;;;;;;27.55;9.90;;;4.90;99.90;;;;;;5011347;28;20046;-77
2023/12/22 01:40:51;;;;;;;24.75;11.10;;;4.90;99.90;;;;;;5033254;28;20045;-78
2023/12/22 01:43:21;;;;;;;24.08;10.85;;;4.90;99.90;;;;;;5039736;28;20744;-76
2023/12/22 01:45:55;;;;;;;25.17;10.93;;;4.90;99.90;;;;;;5019841;28;20604;-77
2023/12/22 01:48:23;;;;;;;29.73;12.43;;;4.90;99.90;;;;;;5028577;28;20056;-76
2023/12/22 01:50:52;;;;;;;24.15;10.68;;;4.90;99.90;;;;;;5028002;28;20044;-79
2023/12/22 01:53:20;;;;;;;35.67;13.32;;;4.90;99.90;;;;;;5031053;28;20060;-78
2023/12/22 01:55:48;;;;;;;24.70;11.20;;;4.90;99.90;;;;;;5032348;28;21086;-77
2023/12/22 01:58:15;;;;;;;22.85;10.20;;;4.90;99.90;;;;;;5041011;28;20037;-79
2023/12/22 02:00:42;;;;;;;24.90;9.25;;;4.90;99.90;;;;;;5044983;28;20057;-77
2023/12/22 02:03:09;;;;;;;22.83;9.70;;;4.80;99.90;;;;;;5013711;28;20132;-77
2023/12/22 02:05:36;;;;;;;14.57;7.15;;;4.80;99.90;;;;;;5033392;28;20040;-75
2023/12/22 02:08:04;;;;;;;29.00;7.45;;;4.80;99.90;;;;;;5025705;28;20041;-75
2023/12/22 02:10:31;;;;;;;25.00;6.80;;;4.70;99.90;;;;;;5040211;28;20683;-75
2023/12/22 02:12:58;;;;;;;23.42;5.28;;;4.60;99.90;;;;;;5035447;28;20053;-75
2023/12/22 02:15:25;;;;;;;21.75;5.57;;;4.50;99.90;;;;;;5038166;28;20056;-73
2023/12/22 02:18:03;;;;;;;24.83;8.38;;;4.40;99.90;;;;;;5038100;28;20048;-73
2023/12/22 02:20:31;;;;;;;34.00;9.38;;;4.30;99.90;;;;;;5031221;28;20068;-74
2023/12/22 02:22:58;;;;;;;28.45;7.93;;;4.20;99.90;;;;;;5024548;28;20044;-73
2023/12/22 02:25:25;;;;;;;25.98;7.38;;;4.30;99.90;;;;;;5026960;28;20140;-74
2023/12/22 02:28:03;;;;;;;22.77;6.13;;;4.20;99.90;;;;;;5019822;28;20597;-78
2023/12/22 02:30:36;;;;;;;22.73;5.88;;;4.10;99.90;;;;;;5019698;28;20663;-80
2023/12/22 02:33:05;;;;;;;18.77;4.32;;;4.00;99.90;;;;;;5052415;28;20049;-79
2023/12/22 02:35:36;;;;;;;17.13;5.13;;;3.90;99.90;;;;;;5019313;28;20127;-79
2023/12/22 02:38:05;;;;;;;9.63;4.03;;;3.90;99.90;;;;;;5034762;28;20051;-78
2023/12/22 02:40:34;;;;;;;8.55;3.40;;;3.90;99.90;;;;;;5034116;28;20056;-78
2023/12/22 02:43:03;;;;;;;15.90;3.67;;;3.80;99.90;;;;;;5056091;28;20048;-78
2023/12/22 02:45:30;;;;;;;19.48;3.95;;;3.90;99.90;;;;;;5035283;28;20110;-78
2023/12/22 02:47:58;;;;;;;23.30;4.28;;;3.90;99.90;;;;;;5034232;28;20084;-78
2023/12/22 02:50:25;;;;;;;29.58;5.53;;;3.90;99.90;;;;;;5027801;28;20102;-78
2023/12/22 02:52:51;;;;;;;28.42;5.60;;;3.90;99.90;;;;;;5043228;28;20053;-78
2023/12/22 02:55:19;;;;;;;23.25;4.03;;;3.90;99.90;;;;;;5018256;28;20099;-80
2023/12/22 02:57:46;;;;;;;19.58;4.22;;;3.80;99.90;;;;;;5039378;28;20037;-79
2023/12/22 03:00:13;;;;;;;35.22;6.88;;;3.70;99.90;;;;;;5050826;28;20045;-78
2023/12/22 03:02:40;;;;;;;24.25;5.13;;;3.60;99.90;;;;;;5025305;28;20037;-79
2023/12/22 03:05:07;;;;;;;28.50;5.78;;;3.70;99.90;;;;;;5036833;28;20040;-78
2023/12/22 03:07:34;;;;;;;29.45;5.57;;;3.70;99.90;;;;;;5031829;28;20046;-74
2023/12/22 03:10:01;;;;;;;17.75;4.47;;;3.70;99.90;;;;;;5048343;28;20037;-75
2023/12/22 03:12:27;;;;;;;25.02;5.05;;;3.70;99.90;;;;;;5021696;28;20397;-75
2023/12/22 03:14:54;;;;;;;22.55;4.28;;;3.80;99.90;;;;;;5034760;28;20051;-76
2023/12/22 03:17:21;;;;;;;25.95;4.30;;;3.80;99.90;;;;;;5023709;28;20044;-74
2023/12/22 03:19:48;;;;;;;22.38;4.97;;;3.90;99.90;;;;;;5042126;28;22025;-74
2023/12/22 03:22:15;;;;;;;19.10;4.55;;;3.90;99.90;;;;;;5036838;28;20059;-76
2023/12/22 03:24:42;;;;;;;26.13;5.43;;;4.00;99.90;;;;;;5032252;28;20163;-74
2023/12/22 03:27:09;;;;;;;22.17;5.03;;;4.10;99.90;;;;;;5017389;28;20412;-76
2023/12/22 03:29:36;;;;;;;26.95;5.88;;;4.10;99.90;;;;;;5035160;28;20504;-74
2023/12/22 03:32:03;;;;;;;27.10;6.43;;;4.10;99.90;;;;;;5036010;28;20068;-76
2023/12/22 03:34:29;;;;;;;23.85;5.57;;;4.20;99.90;;;;;;5026919;28;20100;-74
2023/12/22 03:36:59;;;;;;;26.67;6.25;;;4.20;99.90;;;;;;5039632;28;20037;-76
2023/12/22 03:39:26;;;;;;;14.82;5.57;;;4.20;99.90;;;;;;5038320;28;20056;-76
2023/12/22 03:41:52;;;;;;;39.95;6.82;;;4.30;99.90;;;;;;5036576;28;20103;-73
2023/12/22 03:44:19;;;;;;;22.23;6.15;;;4.30;99.90;;;;;;5030707;28;20033;-75
2023/12/22 03:46:51;;;;;;;28.17;7.15;;;4.30;99.90;;;;;;5039771;28;20059;-78
2023/12/22 03:49:19;;;;;;;27.40;8.13;;;4.30;99.90;;;;;;5040159;28;20049;-76
2023/12/22 03:51:46;;;;;;;40.47;8.68;;;4.40;99.90;;;;;;5041607;28;20045;-74
2023/12/22 03:54:15;;;;;;;22.25;8.77;;;4.40;99.90;;;;;;5020892;28;20056;-75
2023/12/22 03:56:42;;;;;;;26.02;8.38;;;4.40;99.90;;;;;;5040323;28;20052;-75
2023/12/22 03:59:09;;;;;;;26.73;8.30;;;4.50;99.90;;;;;;5039297;28;20125;-76
2023/12/22 04:01:36;;;;;;;15.55;7.05;;;4.50;99.90;;;;;;5037104;28;20128;-75
2023/12/22 04:04:03;;;;;;;22.52;8.38;;;4.40;99.90;;;;;;5049047;28;20076;-73
2023/12/22 04:06:30;;;;;;;14.82;7.95;;;4.40;99.90;;;;;;5053605;28;20100;-77
2023/12/22 04:08:57;;;;;;;19.63;6.13;;;4.40;99.90;;;;;;5069477;28;20091;-76
2023/12/22 04:11:23;;;;;;;26.10;6.60;;;4.30;99.90;;;;;;5050610;28;20128;-76
2023/12/22 04:13:50;;;;;;;30.73;6.43;;;4.20;99.90;;;;;;5070393;28;20033;-78
2023/12/22 04:16:17;;;;;;;24.38;5.13;;;4.10;99.90;;;;;;5050791;28;20059;-77
2023/12/22 04:18:44;;;;;;;22.85;5.10;;;4.10;99.90;;;;;;5039714;28;20041;-78
2023/12/22 04:21:11;;;;;;;23.90;5.18;;;4.10;99.90;;;;;;5047847;28;20070;-77
2023/12/22 04:23:37;;;;;;;18.73;4.45;;;4.10;99.90;;;;;;5046851;28;20515;-77
2023/12/22 04:26:04;;;;;;;20.17;5.28;;;4.10;99.90;;;;;;5036632;28;20523;-78
2023/12/22 04:28:31;;;;;;;30.33;7.10;;;4.20;99.90;;;;;;5034094;28;20318;-78
2023/12/22 04:30:58;;;;;;;16.40;4.05;;;4.20;99.90;;;;;;5038404;28;20056;-77
2023/12/22 04:33:25;;;;;;;15.30;4.22;;;4.30;99.90;;;;;;5029593;28;20143;-78
2023/12/22 04:35:51;;;;;;;23.35;5.22;;;4.30;99.90;;;;;;5025057;28;20051;-77
2023/12/22 04:38:18;;;;;;;19.73;4.63;;;4.40;99.90;;;;;;5016248;28;20114;-77
2023/12/22 04:40:46;;;;;;;20.00;4.38;;;4.40;99.90;;;;;;5020531;28;20075;-77
2023/12/22 04:43:12;;;;;;;11.50;3.85;;;4.40;99.90;;;;;;5023999;28;20725;-78
2023/12/22 04:45:39;;;;;;;15.32;4.63;;;4.40;99.90;;;;;;5038197;28;20049;-76
2023/12/22 04:48:07;;;;;;;9.48;4.28;;;4.30;99.90;;;;;;5036370;28;20709;-76
2023/12/22 04:50:34;;;;;;;7.70;3.97;;;4.40;99.90;;;;;;5032976;28;20060;-74
2023/12/22 04:53:03;;;;;;;11.93;4.25;;;4.40;99.90;;;;;;5035038;28;20052;-79
2023/12/22 04:55:31;;;;;;;5.85;3.50;;;4.40;99.90;;;;;;5037892;28;20053;-81
2023/12/22 04:57:57;;;;;;;18.67;4.47;;;4.30;99.90;;;;;;5041625;28;20053;-79
2023/12/22 05:00:25;;;;;;;7.07;3.42;;;4.30;99.90;;;;;;5045431;28;20048;-79
2023/12/22 05:02:51;;;;;;;5.22;2.80;;;4.20;99.90;;;;;;5018560;28;20767;-78
2023/12/22 05:05:19;;;;;;;6.40;3.08;;;4.10;99.90;;;;;;5043306;28;20407;-79
2023/12/22 05:07:45;;;;;;;6.90;2.97;;;4.10;99.90;;;;;;5044951;28;20053;-77
2023/12/22 05:10:13;;;;;;;5.32;2.95;;;4.10;99.90;;;;;;5036046;28;20045;-78
2023/12/22 05:12:40;;;;;;;7.95;2.72;;;4.10;99.90;;;;;;5044111;28;20171;-79
2023/12/22 05:15:07;;;;;;;9.23;2.60;;;4.10;99.90;;;;;;5050219;28;20040;-81
2023/12/22 05:17:34;;;;;;;11.13;2.90;;;4.00;99.90;;;;;;5055597;28;20052;-83
2023/12/22 05:20:01;;;;;;;10.07;2.42;;;4.00;99.90;;;;;;5064592;28;20045;-82
2023/12/22 05:22:30;;;;;;;5.20;2.05;;;4.00;99.90;;;;;;5038058;28;20055;-82
2023/12/22 05:25:01;;;;;;;9.50;2.40;;;3.90;99.90;;;;;;5045718;28;21888;-81
2023/12/22 05:27:27;;;;;;;11.25;2.50;;;3.80;99.90;;;;;;5032406;28;20051;-82
2023/12/22 05:29:54;;;;;;;6.38;2.00;;;3.70;99.90;;;;;;5033571;28;20506;-81
2023/12/22 05:32:21;;;;;;;8.25;1.92;;;3.80;99.90;;;;;;5034574;28;20052;-83
2023/12/22 05:34:48;;;;;;;6.90;2.20;;;3.80;99.90;;;;;;5049549;28;20045;-81
2023/12/22 05:37:15;;;;;;;6.65;2.30;;;3.80;99.90;;;;;;5053985;28;20070;-81
2023/12/22 05:39:43;;;;;;;8.55;1.70;;;3.90;99.90;;;;;;5055507;28;20053;-80
2023/12/22 05:42:11;;;;;;;11.38;2.13;;;3.90;99.90;;;;;;5034848;28;20060;-82
2023/12/22 05:44:38;;;;;;;10.75;1.92;;;4.00;99.90;;;;;;5055760;28;20057;-80
2023/12/22 05:47:06;;;;;;;3.65;1.65;;;3.90;99.90;;;;;;5046064;28;20055;-81
2023/12/22 05:49:33;;;;;;;8.15;2.33;;;3.90;99.90;;;;;;5050990;28;20057;-81
2023/12/22 05:52:00;;;;;;;7.35;2.25;;;3.90;99.90;;;;;;5044052;28;20171;-80
2023/12/22 05:54:27;;;;;;;7.05;2.30;;;3.90;99.90;;;;;;5044053;28;20252;-82
2023/12/22 05:56:54;;;;;;;4.60;2.00;;;3.90;99.90;;;;;;5045640;28;20558;-81
2023/12/22 05:59:24;;;;;;;7.85;2.10;;;3.90;99.90;;;;;;5026064;28;20049;-80
2023/12/22 06:01:54;;;;;;;6.55;1.90;;;3.90;99.90;;;;;;5028706;28;20059;-82
2023/12/22 06:04:21;;;;;;;9.05;1.92;;;3.90;99.90;;;;;;5038572;28;20300;-80
2023/12/22 06:06:48;;;;;;;7.50;1.67;;;3.90;99.90;;;;;;5038002;28;20037;-80
2023/12/22 06:09:17;;;;;;;13.40;2.05;;;3.90;99.90;;;;;;5042274;28;20045;-83
2023/12/22 06:11:45;;;;;;;12.10;3.90;;;4.00;99.90;;;;;;5042748;28;20527;-80
2023/12/22 06:14:11;;;;;;;13.32;3.08;;;4.00;99.90;;;;;;5028104;28;20053;-80
2023/12/22 06:16:39;;;;;;;12.35;2.80;;;4.00;99.90;;;;;;5026568;28;20069;-83
2023/12/22 06:19:06;;;;;;;8.95;3.13;;;4.10;99.90;;;;;;5042137;28;20111;-83
2023/12/22 06:21:33;;;;;;;12.02;2.97;;;4.10;99.90;;;;;;5037780;28;20048;-79
2023/12/22 06:24:00;;;;;;;8.85;3.13;;;4.20;99.90;;;;;;5035717;28;21923;-79
2023/12/22 06:26:27;;;;;;;18.73;4.55;;;4.20;99.90;;;;;;5024947;28;20092;-80
2023/12/22 06:28:54;;;;;;;13.90;3.15;;;4.30;99.90;;;;;;5037624;28;20072;-82
2023/12/22 06:31:21;;;;;;;20.05;4.25;;;4.40;99.90;;;;;;5047035;28;20048;-80
2023/12/22 06:33:49;;;;;;;16.48;4.10;;;4.30;99.90;;;;;;5038145;28;20057;-81
2023/12/22 06:36:24;;;;;;;11.38;3.88;;;4.40;99.90;;;;;;5032978;28;20044;-79
2023/12/22 06:38:53;;;;;;;20.70;5.07;;;4.40;99.90;;;;;;5044620;28;20057;-79
2023/12/22 06:41:24;;;;;;;10.43;4.03;;;4.40;99.90;;;;;;5041117;28;20036;-83
2023/12/22 06:43:55;;;;;;;14.52;3.85;;;4.50;99.90;;;;;;5039985;28;20049;-79
2023/12/22 06:46:26;;;;;;;14.38;3.95;;;4.40;99.90;;;;;;5045699;28;20048;-82
2023/12/22 06:48:55;;;;;;;15.55;4.55;;;4.50;99.90;;;;;;5040030;28;20057;-80
2023/12/22 06:51:33;;;;;;;15.98;5.07;;;4.50;99.90;;;;;;5044131;28;20113;-80
2023/12/22 06:54:00;;;;;;;11.65;4.72;;;4.50;99.90;;;;;;5040493;28;20110;-79
2023/12/22 06:56:31;;;;;;;12.73;4.65;;;4.50;99.90;;;;;;5039276;28;20068;-79
2023/12/22 06:58:58;;;;;;;9.57;5.35;;;4.60;99.90;;;;;;5026865;28;20048;-79
2023/12/22 07:01:34;;;;;;;14.88;6.38;;;4.60;99.90;;;;;;5041295;28;20045;-80
2023/12/22 07:04:03;;;;;;;20.60;7.07;;;4.70;99.90;;;;;;5033614;28;20041;-81
2023/12/22 07:06:31;;;;;;;26.55;7.88;;;4.70;99.90;;;;;;5035493;28;20072;-79
2023/12/22 07:09:19;;;;;;;16.15;7.35;;;4.70;99.90;;;;;;5017461;28;20417;-79
2023/12/22 07:11:54;;;;;;;13.98;6.95;;;4.70;99.90;;;;;;5031692;28;20048;-80
2023/12/22 07:14:23;;;;;;;21.30;7.55;;;4.70;99.90;;;;;;5023523;28;20076;-79
2023/12/22 07:16:50;;;;;;;17.02;6.90;;;4.70;99.90;;;;;;5039754;28;20060;-81
2023/12/22 07:19:16;;;;;;;23.05;7.50;;;4.70;99.90;;;;;;5045673;28;20522;-80
2023/12/22 07:21:43;;;;;;;18.48;6.55;;;4.70;99.90;;;;;;5018474;28;20053;-79
2023/12/22 07:24:13;;;;;;;18.33;7.35;;;4.80;99.90;;;;;;5024667;28;20111;-76
2023/12/22 07:26:44;;;;;;;20.02;7.78;;;4.70;99.90;;;;;;5008174;28;20080;-75
2023/12/22 07:29:11;;;;;;;15.50;7.43;;;4.70;99.90;;;;;;5026161;28;20057;-76
2023/12/22 07:31:38;;;;;;;15.73;7.50;;;4.80;99.90;;;;;;5029118;28;20110;-75
2023/12/22 07:34:05;;;;;;;10.50;7.00;;;4.80;99.90;;;;;;5010508;28;20045;-75
2023/12/22 07:36:35;;;;;;;16.90;7.90;;;4.70;99.90;;;;;;5017249;28;20076;-76
2023/12/22 07:39:11;;;;;;;24.30;8.30;;;4.80;99.90;;;;;;5031457;28;20503;-75
2023/12/22 07:41:38;;;;;;;18.25;7.28;;;4.80;99.90;;;;;;5024841;28;20762;-74
2023/12/22 07:44:05;;;;;;;11.88;7.22;;;4.80;99.90;;;;;;5025108;28;20426;-73
2023/12/22 07:46:34;;;;;;;21.25;7.05;;;4.80;99.90;;;;;;5047603;28;20048;-74
2023/12/22 07:49:01;;;;;;;14.57;6.55;;;4.80;99.90;;;;;;5050348;28;20040;-74
2023/12/22 07:51:28;;;;;;;22.10;6.88;;;4.80;99.90;;;;;;5033948;28;20053;-75
2023/12/22 07:53:55;;;;;;;30.88;8.00;;;4.80;99.90;;;;;;5027151;28;20049;-76
2023/12/22 07:56:22;;;;;;;22.42;6.63;;;4.80;99.90;;;;;;5009994;28;20049;-74
2023/12/22 07:58:49;;;;;;;17.10;8.18;;;4.80;99.90;;;;;;5027204;28;20052;-74
2023/12/22 08:01:16;;;;;;;11.27;8.63;;;4.80;99.90;;;;;;5033441;28;20060;-75
2023/12/22 08:03:43;;;;;;;26.30;9.52;;;4.80;99.90;;;;;;5032083;28;20738;-74
2023/12/22 08:06:10;;;;;;;26.65;9.20;;;4.90;99.90;;;;;;5013030;28;20526;-74
2023/12/22 08:08:38;;;;;;;23.02;8.63;;;4.90;99.90;;;;;;5033046;28;20068;-73
2023/12/22 08:11:05;;;;;;;25.40;8.13;;;4.90;99.90;;;;;;5024909;28;20043;-74
2023/12/22 08:13:32;;;;;;;21.27;9.07;;;4.90;99.90;;;;;;5030525;28;20558;-73
2023/12/22 08:15:59;;;;;;;24.48;9.05;;;4.90;99.90;;;;;;5009148;28;20044;-74
2023/12/22 08:18:25;;;;;;;19.50;8.80;;;4.90;99.90;;;;;;5018899;28;20053;-73
2023/12/22 08:20:52;;;;;;;19.23;9.50;;;5.00;99.90;;;;;;5015940;28;20111;-74
2023/12/22 08:23:21;;;;;;;22.45;8.50;;;5.00;99.90;;;;;;5015213;28;20491;-74
2023/12/22 08:25:49;;;;;;;24.98;14.85;;;5.00;99.90;;;;;;5019753;28;20045;-74
2023/12/22 08:28:16;;;;;;;19.73;13.65;;;5.00;99.90;;;;;;5035078;28;20954;-74
2023/12/22 08:30:43;;;;;;;28.40;14.98;;;5.10;99.90;;;;;;5015049;28;20519;-74
2023/12/22 08:33:10;;;;;;;28.02;14.30;;;5.10;99.90;;;;;;5008331;28;20206;-73
2023/12/22 08:35:37;;;;;;;17.85;13.05;;;5.10;99.90;;;;;;5029152;28;20626;-74
2023/12/22 08:38:04;;;;;;;21.23;13.68;;;5.10;99.90;;;;;;5011691;28;20079;-75
2023/12/22 08:40:31;;;;;;;17.08;11.85;;;5.10;99.90;;;;;;5029200;28;20052;-74
2023/12/22 08:43:01;;;;;;;18.77;11.40;;;5.10;99.90;;;;;;5016794;28;20056;-74
2023/12/22 08:45:28;;;;;;;26.45;12.43;;;5.20;99.90;;;;;;5010021;28;20045;-74
2023/12/22 08:47:57;;;;;;;21.98;12.48;;;5.20;99.90;;;;;;5026293;28;20049;-74
2023/12/22 08:50:24;;;;;;;18.88;12.73;;;5.20;99.90;;;;;;5028195;28;20050;-73
2023/12/22 08:52:51;;;;;;;19.50;13.50;;;5.20;99.90;;;;;;5029021;28;20815;-73
2023/12/22 08:55:18;;;;;;;30.88;14.60;;;5.20;99.90;;;;;;5057621;28;20048;-73
2023/12/22 08:57:46;;;;;;;26.52;14.55;;;5.30;99.90;;;;;;5029919;28;20033;-74
2023/12/22 09:00:25;;;;;;;24.23;14.55;;;5.30;99.90;;;;;;5021963;28;20045;-77
2023/12/22 09:02:52;;;;;;;18.25;13.45;;;5.30;99.90;;;;;;5029748;28;20044;-74
2023/12/22 09:05:20;;;;;;;16.52;13.32;;;5.30;99.90;;;;;;5016414;28;20149;-74
2023/12/22 09:07:48;;;;;;;15.75;11.48;;;5.20;99.90;;;;;;5031219;28;20053;-74
2023/12/22 09:10:15;;;;;;;21.70;10.63;;;5.20;99.90;;;;;;5022689;28;21059;-74
2023/12/22 09:12:42;;;;;;;20.88;11.10;;;5.20;99.90;;;;;;5015875;28;20558;-75
2023/12/22 09:15:09;;;;;;;19.50;10.48;;;5.10;99.90;;;;;;5008822;28;20095;-75
2023/12/22 09:17:36;;;;;;;19.52;11.70;;;5.10;99.90;;;;;;5042381;28;20033;-75
2023/12/22 09:20:03;;;;;;;17.70;11.63;;;5.10;99.90;;;;;;5023563;28;20046;-76
2023/12/22 09:22:30;;;;;;;15.23;5.60;;;5.00;99.90;;;;;;5027166;28;20144;-76
2023/12/22 09:24:57;;;;;;;8.70;4.70;;;4.90;99.90;;;;;;5015950;28;20699;-74
2023/12/22 09:27:28;;;;;;;8.80;4.05;;;4.80;99.90;;;;;;5023419;28;20044;-75
2023/12/22 09:29:55;;;;;;;7.90;3.35;;;4.80;99.90;;;;;;5022161;28;20544;-74
2023/12/22 09:32:22;;;;;;;8.75;4.13;;;4.70;99.90;;;;;;5024640;28;20052;-75
2023/12/22 09:34:49;;;;;;;6.95;3.17;;;4.70;99.90;;;;;;5025031;28;20051;-75
2023/12/22 09:37:16;;;;;;;8.68;4.20;;;4.60;99.90;;;;;;5022362;28;21024;-75
2023/12/22 09:39:42;;;;;;;8.18;4.45;;;4.60;99.90;;;;;;5027529;28;20026;-75
2023/12/22 09:42:09;;;;;;;12.80;4.93;;;4.60;99.90;;;;;;5012081;28;20144;-73
2023/12/22 09:44:38;;;;;;;5.32;3.00;;;4.60;99.90;;;;;;5030536;28;20041;-75
2023/12/22 09:47:06;;;;;;;6.82;3.10;;;4.60;99.90;;;;;;5013328;28;20040;-75
2023/12/22 09:49:35;;;;;;;9.45;3.60;;;4.60;99.90;;;;;;5026778;28;20049;-74
2023/12/22 09:52:03;;;;;;;10.93;4.95;;;4.60;99.90;;;;;;5022410;28;20040;-74
2023/12/22 09:54:31;;;;;;;8.98;5.68;;;4.60;99.90;;;;;;5011672;28;20125;-76
2023/12/22 09:57:00;;;;;;;16.05;5.85;;;4.60;99.90;;;;;;5021867;28;20045;-75
2023/12/22 09:59:47;;;;;;;11.15;5.20;;;4.60;99.90;;;;;;5024192;28;20504;-75
2023/12/22 10:02:14;;;;;;;7.97;4.22;;;4.50;99.90;;;;;;5024063;28;20062;-76
2023/12/22 10:04:41;;;;;;;13.40;5.28;;;4.60;99.90;;;;;;5028514;28;20059;-76
2023/12/22 10:07:10;;;;;;;12.05;4.65;;;4.70;99.90;;;;;;5023330;28;20732;-76
2023/12/22 10:09:37;;;;;;;12.27;4.88;;;4.70;99.90;;;;;;5022862;28;20045;-75
2023/12/22 10:12:05;;;;;;;10.50;4.65;;;4.70;99.90;;;;;;5001062;28;20059;-75
2023/12/22 10:14:33;;;;;;;12.88;5.10;;;4.80;99.90;;;;;;5024569;28;20046;-75
2023/12/22 10:17:07;;;;;;;10.90;3.88;;;4.80;99.90;;;;;;5005867;28;20048;-75
2023/12/22 10:19:34;;;;;;;11.50;4.35;;;4.80;99.90;;;;;;5005002;28;20053;-76
2023/12/22 10:22:01;;;;;;;11.80;5.00;;;4.80;99.90;;;;;;5021950;28;20691;-75
2023/12/22 10:24:39;;;;;;;18.58;4.63;;;4.90;99.90;;;;;;5022968;28;20055;-75
2023/12/22 10:27:06;;;;;;;9.82;4.43;;;4.90;99.90;;;;;;5020179;28;20757;-77
2023/12/22 10:29:33;;;;;;;11.20;4.20;;;4.90;99.90;;;;;;5005048;28;20053;-75
2023/12/22 10:32:01;;;;;;;14.93;4.00;;;5.00;99.90;;;;;;5018119;28;20166;-76
2023/12/22 10:34:33;;;;;;;17.55;4.75;;;5.10;99.90;;;;;;5028400;28;20513;-76
2023/12/22 10:37:00;;;;;;;12.93;4.20;;;5.10;99.90;;;;;;5004762;28;20055;-76
2023/12/22 10:39:32;;;;;;;9.73;3.38;;;5.10;99.90;;;;;;5010336;28;20048;-76
2023/12/22 10:41:59;;;;;;;10.88;4.15;;;5.20;99.90;;;;;;5026648;28;21614;-76
2023/12/22 10:44:28;;;;;;;15.02;3.83;;;5.20;99.90;;;;;;5002805;28;20518;-75
2023/12/22 10:46:55;;;;;;;10.23;3.53;;;5.20;99.90;;;;;;5006877;28;20053;-76
2023/12/22 10:49:24;;;;;;;16.42;5.47;;;5.20;99.90;;;;;;5024435;28;20040;-76
2023/12/22 10:51:52;;;;;;;13.98;4.10;;;5.20;99.90;;;;;;5023728;28;20041;-76
2023/12/22 10:54:19;;;;;;;16.27;4.25;;;5.20;99.90;;;;;;5006572;28;20052;-76
2023/12/22 10:56:46;;;;;;;9.90;3.38;;;5.30;99.90;;;;;;5005032;28;20037;-75
2023/12/22 10:59:18;;;;;;;8.82;4.10;;;5.30;99.90;;;;;;5012965;28;20041;-75
2023/12/22 11:01:47;;;;;;;16.25;4.45;;;5.30;99.90;;;;;;5007136;28;20876;-75
2023/12/22 11:04:20;;;;;;;10.95;4.15;;;5.30;99.90;;;;;;5020975;28;20059;-76
2023/12/22 11:06:52;;;;;;;19.92;4.72;;;5.30;99.90;;;;;;5028768;28;20041;-75
2023/12/22 11:09:23;;;;;;;6.35;4.22;;;5.30;99.90;;;;;;5022343;28;20059;-76
2023/12/22 11:11:51;;;;;;;6.72;4.80;;;5.40;99.90;;;;;;5023095;28;20045;-75
2023/12/22 11:14:19;;;;;;;8.23;3.97;;;5.30;99.90;;;;;;5021840;28;20109;-76
2023/12/22 11:16:48;;;;;;;7.32;3.83;;;5.30;99.90;;;;;;5005496;28;20042;-76
2023/12/22 11:19:15;;;;;;;11.10;3.30;;;5.30;99.90;;;;;;5006763;28;20052;-75
2023/12/22 11:21:43;;;;;;;7.65;3.75;;;5.30;99.90;;;;;;5030383;28;20393;-75
2023/12/22 11:24:12;;;;;;;10.68;3.47;;;5.30;99.90;;;;;;5024540;28;20049;-75
2023/12/22 11:26:42;;;;;;;9.98;3.20;;;5.30;99.90;;;;;;5031289;28;20041;-75
2023/12/22 11:29:10;;;;;;;12.15;4.03;;;5.20;99.90;;;;;;5047228;28;20029;-75
2023/12/22 11:31:38;;;;;;;9.98;3.10;;;5.20;99.90;;;;;;5025732;28;20045;-76
2023/12/22 11:34:07;;;;;;;8.85;2.80;;;5.20;99.90;;;;;;5029741;28;20047;-76
2023/12/22 11:36:43;;;;;;;15.95;3.08;;;5.20;99.90;;;;;;5025962;28;20084;-76
2023/12/22 11:39:10;;;;;;;14.60;3.55;;;5.10;99.90;;;;;;5008545;28;20431;-76
2023/12/22 11:41:40;;;;;;;8.35;3.30;;;5.10;99.90;;;;;;5026253;28;20134;-78
2023/12/22 11:44:08;;;;;;;9.60;3.53;;;5.10;99.90;;;;;;5015532;28;20439;-76
2023/12/22 11:46:35;;;;;;;17.23;4.60;;;5.10;99.90;;;;;;5012958;28;20053;-76
2023/12/22 11:49:02;;;;;;;13.50;4.68;;;5.20;99.90;;;;;;5015254;28;21002;-76
2023/12/22 11:51:36;;;;;;;22.35;6.10;;;5.20;99.90;;;;;;5004660;28;20139;-77
2023/12/22 11:54:03;;;;;;;11.10;5.30;;;5.20;99.90;;;;;;5027254;28;20045;-76
2023/12/22 11:56:31;;;;;;;15.68;6.00;;;5.20;99.90;;;;;;5027286;28;20128;-75
2023/12/22 11:58:59;;;;;;;16.80;7.30;;;5.30;99.90;;;;;;5011300;28;20136;-75
2023/12/22 12:01:31;;;;;;;11.02;6.20;;;5.20;99.90;;;;;;5027540;28;20047;-76
2023/12/22 12:04:03;;;;;;;14.88;5.93;;;5.30;99.90;;;;;;5028594;28;20492;-76
2023/12/22 12:06:31;;;;;;;10.32;4.78;;;5.30;99.90;;;;;;5025242;28;20076;-77
2023/12/22 12:09:03;;;;;;;14.63;5.00;;;5.30;99.90;;;;;;5013387;28;20427;-76
2023/12/22 12:12:05;;;;;;;13.88;4.88;;;5.40;99.90;;;;;;5003558;28;20036;-79
2023/12/22 12:14:36;;;;;;;9.60;4.15;;;5.30;99.90;;;;;;4991465;28;20041;-76
2023/12/22 12:17:10;;;;;;;10.93;4.57;;;5.30;99.90;;;;;;5008950;28;20059;-79
2023/12/22 12:19:38;;;;;;;15.25;5.20;;;5.40;99.90;;;;;;5011872;28;20048;-76
2023/12/22 12:22:05;;;;;;;8.45;3.67;;;5.40;99.90;;;;;;5023798;28;20053;-75
2023/12/22 12:24:32;;;;;;;9.05;4.28;;;5.40;99.90;;;;;;5036109;28;20407;-75
2023/12/22 12:26:59;;;;;;;9.07;3.58;;;5.40;99.90;;;;;;5029088;28;20755;-75
2023/12/22 12:29:26;;;;;;;12.15;4.30;;;5.50;99.90;;;;;;5021269;28;20621;-76
2023/12/22 12:31:53;;;;;;;6.00;2.80;;;5.50;99.90;;;;;;5025627;28;20045;-77
2023/12/22 12:34:22;;;;;;;6.90;3.50;;;5.50;99.90;;;;;;5004624;28;20045;-75
2023/12/22 12:36:50;;;;;;;16.52;4.43;;;5.50;99.90;;;;;;5025678;28;20042;-76
2023/12/22 12:39:19;;;;;;;8.70;3.35;;;5.50;99.90;;;;;;5028677;28;20060;-76
2023/12/22 12:41:52;;;;;;;7.80;3.53;;;5.50;99.90;;;;;;5009438;28;20125;-76
2023/12/22 12:44:25;;;;;;;15.55;5.70;;;5.50;99.90;;;;;;5000835;28;20064;-76
2023/12/22 12:46:52;;;;;;;8.90;5.28;;;5.60;99.90;;;;;;5026774;28;20056;-76
2023/12/22 12:49:19;;;;;;;7.90;4.38;;;5.60;99.90;;;;;;5006721;28;20060;-77
2023/12/22 12:51:48;;;;;;;6.60;3.60;;;5.60;99.90;;;;;;5007747;28;20060;-77